sensor_id;sensor_type;location;lat;lon;timestamp;P1;durP1;ratioP1;P2;durP2;ratioP2
48897;SDS011;34713;50.038;20.000;2023-08-17T00:00:50;10.60;;;5.50;;
48897;SDS011;34713;50.038;20.000;2023-08-17T00:03:41;8.50;;;5.80;;
48897;SDS011;34713;50.038;20.000;2023-08-17T00:06:07;9.50;;;5.90;;
48897;SDS011;34713;50.038;20.000;2023-08-17T00:08:34;10.90;;;6.00;;
48897;SDS011;34713;50.038;20.000;2023-08-17T00:11:01;8.30;;;6.20;;
48897;SDS011;34713;50.038;20.000;2023-08-17T00:13:36;9.10;;;6.00;;
48897;SDS011;34713;50.038;20.000;2023-08-17T00:16:03;12.50;;;6.10;;
48897;SDS011;34713;50.038;20.000;2023-08-17T00:18:30;11.20;;;5.80;;
48897;SDS011;34713;50.038;20.000;2023-08-17T00:20:57;8.50;;;6.40;;
48897;SDS011;34713;50.038;20.000;2023-08-17T00:23:24;8.80;;;6.50;;
48897;SDS011;34713;50.038;20.000;2023-08-17T00:25:51;10.40;;;6.90;;
48897;SDS011;34713;50.038;20.000;2023-08-17T00:28:17;11.10;;;6.80;;
48897;SDS011;34713;50.038;20.000;2023-08-17T00:30:44;16.80;;;6.50;;
48897;SDS011;34713;50.038;20.000;2023-08-17T00:33:11;11.20;;;6.40;;
48897;SDS011;34713;50.038;20.000;2023-08-17T00:35:37;10.50;;;6.50;;
48897;SDS011;34713;50.038;20.000;2023-08-17T00:38:04;15.00;;;6.30;;
48897;SDS011;34713;50.038;20.000;2023-08-17T00:40:31;11.50;;;6.50;;
48897;SDS011;34713;50.038;20.000;2023-08-17T00:42:58;12.30;;;7.10;;
48897;SDS011;34713;50.038;20.000;2023-08-17T00:45:24;12.30;;;6.40;;
48897;SDS011;34713;50.038;20.000;2023-08-17T00:47:53;10.10;;;6.40;;
48897;SDS011;34713;50.038;20.000;2023-08-17T00:50:41;12.90;;;6.90;;
48897;SDS011;34713;50.038;20.000;2023-08-17T00:53:17;9.30;;;6.70;;
48897;SDS011;34713;50.038;20.000;2023-08-17T00:55:45;11.10;;;6.40;;
48897;SDS011;34713;50.038;20.000;2023-08-17T00:58:12;8.70;;;6.10;;
48897;SDS011;34713;50.038;20.000;2023-08-17T01:00:38;9.20;;;6.20;;
48897;SDS011;34713;50.038;20.000;2023-08-17T01:03:05;10.60;;;6.30;;
48897;SDS011;34713;50.038;20.000;2023-08-17T01:05:32;12.70;;;6.30;;
48897;SDS011;34713;50.038;20.000;2023-08-17T01:07:59;12.60;;;6.10;;
48897;SDS011;34713;50.038;20.000;2023-08-17T01:10:44;12.20;;;7.30;;
48897;SDS011;34713;50.038;20.000;2023-08-17T01:13:44;9.00;;;6.40;;
48897;SDS011;34713;50.038;20.000;2023-08-17T01:16:21;13.40;;;6.30;;
48897;SDS011;34713;50.038;20.000;2023-08-17T01:19:25;12.30;;;6.80;;
48897;SDS011;34713;50.038;20.000;2023-08-17T01:22:04;9.90;;;6.50;;
48897;SDS011;34713;50.038;20.000;2023-08-17T01:24:37;9.70;;;6.10;;
48897;SDS011;34713;50.038;20.000;2023-08-17T01:27:06;9.90;;;6.40;;
48897;SDS011;34713;50.038;20.000;2023-08-17T01:29:33;9.20;;;6.50;;
48897;SDS011;34713;50.038;20.000;2023-08-17T01:34:33;8.30;;;6.30;;
48897;SDS011;34713;50.038;20.000;2023-08-17T01:37:13;8.90;;;7.10;;
48897;SDS011;34713;50.038;20.000;2023-08-17T01:39:43;12.00;;;6.00;;
48897;SDS011;34713;50.038;20.000;2023-08-17T01:42:25;11.20;;;6.30;;
48897;SDS011;34713;50.038;20.000;2023-08-17T01:44:53;8.80;;;5.70;;
48897;SDS011;34713;50.038;20.000;2023-08-17T01:47:22;8.30;;;6.50;;
48897;SDS011;34713;50.038;20.000;2023-08-17T01:52:26;7.50;;;5.90;;
48897;SDS011;34713;50.038;20.000;2023-08-17T01:54:54;7.50;;;5.60;;
48897;SDS011;34713;50.038;20.000;2023-08-17T01:57:21;10.40;;;5.30;;
48897;SDS011;34713;50.038;20.000;2023-08-17T01:59:47;12.10;;;6.40;;
48897;SDS011;34713;50.038;20.000;2023-08-17T02:02:35;9.20;;;5.90;;
48897;SDS011;34713;50.038;20.000;2023-08-17T02:05:01;10.80;;;6.00;;
48897;SDS011;34713;50.038;20.000;2023-08-17T02:07:28;9.30;;;5.80;;
48897;SDS011;34713;50.038;20.000;2023-08-17T02:09:55;8.90;;;5.60;;
48897;SDS011;34713;50.038;20.000;2023-08-17T02:12:21;10.30;;;6.50;;
48897;SDS011;34713;50.038;20.000;2023-08-17T02:14:48;9.40;;;6.90;;
48897;SDS011;34713;50.038;20.000;2023-08-17T02:17:15;9.90;;;5.90;;
48897;SDS011;34713;50.038;20.000;2023-08-17T02:19:45;8.20;;;5.80;;
48897;SDS011;34713;50.038;20.000;2023-08-17T02:22:14;9.00;;;6.70;;
48897;SDS011;34713;50.038;20.000;2023-08-17T02:24:42;10.10;;;7.00;;
48897;SDS011;34713;50.038;20.000;2023-08-17T02:27:09;10.50;;;7.10;;
48897;SDS011;34713;50.038;20.000;2023-08-17T02:29:35;12.60;;;6.80;;
48897;SDS011;34713;50.038;20.000;2023-08-17T02:32:05;8.10;;;6.40;;
48897;SDS011;34713;50.038;20.000;2023-08-17T02:34:32;10.10;;;6.50;;
48897;SDS011;34713;50.038;20.000;2023-08-17T02:36:58;10.30;;;6.60;;
48897;SDS011;34713;50.038;20.000;2023-08-17T02:39:31;9.70;;;6.40;;
48897;SDS011;34713;50.038;20.000;2023-08-17T02:41:58;9.10;;;6.60;;
48897;SDS011;34713;50.038;20.000;2023-08-17T02:44:24;8.00;;;6.20;;
48897;SDS011;34713;50.038;20.000;2023-08-17T02:46:54;10.20;;;6.40;;
48897;SDS011;34713;50.038;20.000;2023-08-17T02:49:21;8.80;;;6.40;;
48897;SDS011;34713;50.038;20.000;2023-08-17T02:51:48;11.60;;;7.20;;
48897;SDS011;34713;50.038;20.000;2023-08-17T02:54:17;11.50;;;7.00;;
48897;SDS011;34713;50.038;20.000;2023-08-17T02:59:21;13.50;;;6.80;;
48897;SDS011;34713;50.038;20.000;2023-08-17T03:01:48;8.30;;;6.60;;
48897;SDS011;34713;50.038;20.000;2023-08-17T03:04:19;10.00;;;7.00;;
48897;SDS011;34713;50.038;20.000;2023-08-17T03:06:51;10.90;;;6.30;;
48897;SDS011;34713;50.038;20.000;2023-08-17T03:09:18;8.90;;;6.60;;
48897;SDS011;34713;50.038;20.000;2023-08-17T03:11:44;19.60;;;7.50;;
48897;SDS011;34713;50.038;20.000;2023-08-17T03:14:11;12.70;;;6.90;;
48897;SDS011;34713;50.038;20.000;2023-08-17T03:16:38;13.00;;;7.20;;
48897;SDS011;34713;50.038;20.000;2023-08-17T03:19:05;9.70;;;7.10;;
48897;SDS011;34713;50.038;20.000;2023-08-17T03:21:37;8.40;;;6.50;;
48897;SDS011;34713;50.038;20.000;2023-08-17T03:24:04;13.10;;;6.90;;
48897;SDS011;34713;50.038;20.000;2023-08-17T03:26:31;12.30;;;7.10;;
48897;SDS011;34713;50.038;20.000;2023-08-17T03:29:05;9.30;;;7.30;;
48897;SDS011;34713;50.038;20.000;2023-08-17T03:31:42;10.60;;;7.10;;
48897;SDS011;34713;50.038;20.000;2023-08-17T03:34:09;11.50;;;7.90;;
48897;SDS011;34713;50.038;20.000;2023-08-17T03:36:35;9.60;;;7.70;;
48897;SDS011;34713;50.038;20.000;2023-08-17T03:39:02;9.80;;;6.70;;
48897;SDS011;34713;50.038;20.000;2023-08-17T03:41:29;11.00;;;7.80;;
48897;SDS011;34713;50.038;20.000;2023-08-17T03:43:56;15.10;;;8.00;;
48897;SDS011;34713;50.038;20.000;2023-08-17T03:46:23;18.90;;;7.20;;
48897;SDS011;34713;50.038;20.000;2023-08-17T03:48:50;17.90;;;7.10;;
48897;SDS011;34713;50.038;20.000;2023-08-17T03:51:17;15.40;;;7.10;;
48897;SDS011;34713;50.038;20.000;2023-08-17T03:53:43;15.40;;;6.90;;
48897;SDS011;34713;50.038;20.000;2023-08-17T03:56:10;13.70;;;8.00;;
48897;SDS011;34713;50.038;20.000;2023-08-17T03:58:36;14.40;;;7.40;;
48897;SDS011;34713;50.038;20.000;2023-08-17T04:01:03;10.20;;;7.60;;
48897;SDS011;34713;50.038;20.000;2023-08-17T04:03:32;12.50;;;6.90;;
48897;SDS011;34713;50.038;20.000;2023-08-17T04:06:04;9.80;;;6.80;;
48897;SDS011;34713;50.038;20.000;2023-08-17T04:08:31;10.20;;;6.90;;
48897;SDS011;34713;50.038;20.000;2023-08-17T04:10:58;10.10;;;7.10;;
48897;SDS011;34713;50.038;20.000;2023-08-17T04:13:28;10.40;;;6.60;;
48897;SDS011;34713;50.038;20.000;2023-08-17T04:15:54;12.60;;;6.80;;
48897;SDS011;34713;50.038;20.000;2023-08-17T04:18:21;10.50;;;7.20;;
48897;SDS011;34713;50.038;20.000;2023-08-17T04:20:48;12.00;;;7.00;;
48897;SDS011;34713;50.038;20.000;2023-08-17T04:23:16;9.80;;;6.80;;
48897;SDS011;34713;50.038;20.000;2023-08-17T04:25:43;9.60;;;6.30;;
48897;SDS011;34713;50.038;20.000;2023-08-17T04:28:10;10.10;;;6.60;;
48897;SDS011;34713;50.038;20.000;2023-08-17T04:30:37;14.90;;;7.00;;
48897;SDS011;34713;50.038;20.000;2023-08-17T04:33:04;15.20;;;7.30;;
48897;SDS011;34713;50.038;20.000;2023-08-17T04:35:34;20.30;;;8.10;;
48897;SDS011;34713;50.038;20.000;2023-08-17T04:38:00;16.80;;;7.30;;
48897;SDS011;34713;50.038;20.000;2023-08-17T04:40:27;11.20;;;6.30;;
48897;SDS011;34713;50.038;20.000;2023-08-17T04:42:54;14.70;;;6.90;;
48897;SDS011;34713;50.038;20.000;2023-08-17T04:45:20;17.10;;;7.60;;
48897;SDS011;34713;50.038;20.000;2023-08-17T04:47:47;12.80;;;7.10;;
48897;SDS011;34713;50.038;20.000;2023-08-17T04:50:14;13.00;;;7.20;;
48897;SDS011;34713;50.038;20.000;2023-08-17T04:52:44;13.20;;;6.80;;
48897;SDS011;34713;50.038;20.000;2023-08-17T04:55:12;14.40;;;7.00;;
48897;SDS011;34713;50.038;20.000;2023-08-17T04:57:39;13.00;;;7.50;;
48897;SDS011;34713;50.038;20.000;2023-08-17T05:00:06;19.70;;;7.80;;
48897;SDS011;34713;50.038;20.000;2023-08-17T05:02:36;14.40;;;6.80;;
48897;SDS011;34713;50.038;20.000;2023-08-17T05:05:06;11.40;;;7.00;;
48897;SDS011;34713;50.038;20.000;2023-08-17T05:07:34;16.10;;;7.20;;
48897;SDS011;34713;50.038;20.000;2023-08-17T05:10:00;10.00;;;7.40;;
48897;SDS011;34713;50.038;20.000;2023-08-17T05:12:28;11.70;;;7.40;;
48897;SDS011;34713;50.038;20.000;2023-08-17T05:14:58;12.40;;;7.10;;
48897;SDS011;34713;50.038;20.000;2023-08-17T05:17:27;10.30;;;7.00;;
48897;SDS011;34713;50.038;20.000;2023-08-17T05:19:57;13.00;;;6.70;;
48897;SDS011;34713;50.038;20.000;2023-08-17T05:22:24;16.70;;;7.80;;
48897;SDS011;34713;50.038;20.000;2023-08-17T05:25:01;12.60;;;7.20;;
48897;SDS011;34713;50.038;20.000;2023-08-17T05:27:28;13.40;;;7.30;;
48897;SDS011;34713;50.038;20.000;2023-08-17T05:29:54;15.80;;;7.30;;
48897;SDS011;34713;50.038;20.000;2023-08-17T05:32:23;12.10;;;7.60;;
48897;SDS011;34713;50.038;20.000;2023-08-17T05:34:50;16.90;;;7.40;;
48897;SDS011;34713;50.038;20.000;2023-08-17T05:37:20;13.60;;;6.70;;
48897;SDS011;34713;50.038;20.000;2023-08-17T05:39:47;12.00;;;6.90;;
48897;SDS011;34713;50.038;20.000;2023-08-17T05:42:14;13.10;;;7.20;;
48897;SDS011;34713;50.038;20.000;2023-08-17T05:44:44;8.20;;;6.80;;
48897;SDS011;34713;50.038;20.000;2023-08-17T05:47:11;14.90;;;8.10;;
48897;SDS011;34713;50.038;20.000;2023-08-17T05:49:41;14.70;;;7.90;;
48897;SDS011;34713;50.038;20.000;2023-08-17T05:52:08;13.50;;;7.30;;
48897;SDS011;34713;50.038;20.000;2023-08-17T05:54:34;11.90;;;8.10;;
48897;SDS011;34713;50.038;20.000;2023-08-17T05:57:01;15.60;;;7.70;;
48897;SDS011;34713;50.038;20.000;2023-08-17T05:59:29;12.60;;;7.50;;
48897;SDS011;34713;50.038;20.000;2023-08-17T06:01:56;16.50;;;7.40;;
48897;SDS011;34713;50.038;20.000;2023-08-17T06:04:22;11.50;;;7.30;;
48897;SDS011;34713;50.038;20.000;2023-08-17T06:06:49;15.40;;;7.40;;
48897;SDS011;34713;50.038;20.000;2023-08-17T06:09:16;15.30;;;7.50;;
48897;SDS011;34713;50.038;20.000;2023-08-17T06:11:42;9.90;;;7.20;;
48897;SDS011;34713;50.038;20.000;2023-08-17T06:14:09;10.20;;;7.10;;
48897;SDS011;34713;50.038;20.000;2023-08-17T06:16:36;14.70;;;7.50;;
48897;SDS011;34713;50.038;20.000;2023-08-17T06:19:03;12.10;;;7.20;;
48897;SDS011;34713;50.038;20.000;2023-08-17T06:21:30;10.40;;;6.50;;
48897;SDS011;34713;50.038;20.000;2023-08-17T06:23:57;17.40;;;7.30;;
48897;SDS011;34713;50.038;20.000;2023-08-17T06:26:24;12.90;;;6.50;;
48897;SDS011;34713;50.038;20.000;2023-08-17T06:28:50;15.60;;;6.50;;
48897;SDS011;34713;50.038;20.000;2023-08-17T06:31:17;8.40;;;5.70;;
48897;SDS011;34713;50.038;20.000;2023-08-17T06:33:44;8.40;;;5.90;;
48897;SDS011;34713;50.038;20.000;2023-08-17T06:36:11;10.70;;;5.40;;
48897;SDS011;34713;50.038;20.000;2023-08-17T06:38:45;9.70;;;6.00;;
48897;SDS011;34713;50.038;20.000;2023-08-17T06:41:12;11.20;;;5.80;;
48897;SDS011;34713;50.038;20.000;2023-08-17T06:44:00;8.10;;;5.50;;
48897;SDS011;34713;50.038;20.000;2023-08-17T06:46:50;12.50;;;5.50;;
48897;SDS011;34713;50.038;20.000;2023-08-17T06:49:15;10.20;;;5.40;;
48897;SDS011;34713;50.038;20.000;2023-08-17T06:51:42;11.90;;;5.50;;
48897;SDS011;34713;50.038;20.000;2023-08-17T06:54:11;10.70;;;6.10;;
48897;SDS011;34713;50.038;20.000;2023-08-17T06:56:43;12.30;;;5.60;;
48897;SDS011;34713;50.038;20.000;2023-08-17T06:59:15;12.80;;;5.60;;
48897;SDS011;34713;50.038;20.000;2023-08-17T07:01:43;10.70;;;5.90;;
48897;SDS011;34713;50.038;20.000;2023-08-17T07:04:09;10.00;;;5.60;;
48897;SDS011;34713;50.038;20.000;2023-08-17T07:06:36;8.10;;;4.90;;
48897;SDS011;34713;50.038;20.000;2023-08-17T07:09:03;11.30;;;5.10;;
48897;SDS011;34713;50.038;20.000;2023-08-17T07:11:33;9.50;;;5.00;;
48897;SDS011;34713;50.038;20.000;2023-08-17T07:14:22;8.10;;;4.80;;
48897;SDS011;34713;50.038;20.000;2023-08-17T07:17:01;8.20;;;4.40;;
48897;SDS011;34713;50.038;20.000;2023-08-17T07:19:27;8.00;;;4.50;;
48897;SDS011;34713;50.038;20.000;2023-08-17T07:21:55;10.70;;;4.00;;
48897;SDS011;34713;50.038;20.000;2023-08-17T07:24:22;9.20;;;4.80;;
48897;SDS011;34713;50.038;20.000;2023-08-17T07:26:48;5.80;;;3.70;;
48897;SDS011;34713;50.038;20.000;2023-08-17T07:29:19;6.00;;;3.30;;
48897;SDS011;34713;50.038;20.000;2023-08-17T07:31:45;5.90;;;3.50;;
48897;SDS011;34713;50.038;20.000;2023-08-17T07:34:12;6.10;;;3.30;;
48897;SDS011;34713;50.038;20.000;2023-08-17T07:36:39;3.80;;;3.10;;
48897;SDS011;34713;50.038;20.000;2023-08-17T07:39:06;5.40;;;2.80;;
48897;SDS011;34713;50.038;20.000;2023-08-17T07:41:33;6.50;;;3.30;;
48897;SDS011;34713;50.038;20.000;2023-08-17T07:44:00;8.90;;;3.70;;
48897;SDS011;34713;50.038;20.000;2023-08-17T07:46:27;8.90;;;3.40;;
48897;SDS011;34713;50.038;20.000;2023-08-17T07:48:54;7.40;;;3.70;;
48897;SDS011;34713;50.038;20.000;2023-08-17T07:51:21;8.30;;;3.30;;
48897;SDS011;34713;50.038;20.000;2023-08-17T07:53:47;9.20;;;3.60;;
48897;SDS011;34713;50.038;20.000;2023-08-17T07:56:14;5.60;;;3.50;;
48897;SDS011;34713;50.038;20.000;2023-08-17T08:01:25;9.00;;;3.90;;
48897;SDS011;34713;50.038;20.000;2023-08-17T08:03:54;6.30;;;3.70;;
48897;SDS011;34713;50.038;20.000;2023-08-17T08:06:24;7.20;;;4.10;;
48897;SDS011;34713;50.038;20.000;2023-08-17T08:09:11;6.00;;;3.60;;
48897;SDS011;34713;50.038;20.000;2023-08-17T08:11:50;8.70;;;3.90;;
48897;SDS011;34713;50.038;20.000;2023-08-17T08:14:25;7.30;;;4.10;;
48897;SDS011;34713;50.038;20.000;2023-08-17T08:20:58;9.40;;;4.10;;
48897;SDS011;34713;50.038;20.000;2023-08-17T08:23:28;8.00;;;4.10;;
48897;SDS011;34713;50.038;20.000;2023-08-17T08:25:57;8.40;;;4.20;;
48897;SDS011;34713;50.038;20.000;2023-08-17T08:28:24;5.70;;;4.10;;
48897;SDS011;34713;50.038;20.000;2023-08-17T08:31:01;6.40;;;4.10;;
48897;SDS011;34713;50.038;20.000;2023-08-17T08:33:29;9.30;;;4.50;;
48897;SDS011;34713;50.038;20.000;2023-08-17T08:35:59;12.10;;;3.90;;
48897;SDS011;34713;50.038;20.000;2023-08-17T08:38:26;9.30;;;4.30;;
48897;SDS011;34713;50.038;20.000;2023-08-17T08:40:56;8.70;;;4.30;;
48897;SDS011;34713;50.038;20.000;2023-08-17T08:43:32;7.60;;;4.10;;
48897;SDS011;34713;50.038;20.000;2023-08-17T08:46:06;6.50;;;3.60;;
48897;SDS011;34713;50.038;20.000;2023-08-17T08:48:34;9.40;;;4.10;;
48897;SDS011;34713;50.038;20.000;2023-08-17T08:51:00;7.10;;;3.90;;
48897;SDS011;34713;50.038;20.000;2023-08-17T08:53:28;5.10;;;4.00;;
48897;SDS011;34713;50.038;20.000;2023-08-17T08:56:01;9.70;;;3.90;;
48897;SDS011;34713;50.038;20.000;2023-08-17T08:58:31;7.40;;;4.20;;
48897;SDS011;34713;50.038;20.000;2023-08-17T09:00:58;6.80;;;4.60;;
48897;SDS011;34713;50.038;20.000;2023-08-17T09:03:30;8.00;;;4.00;;
48897;SDS011;34713;50.038;20.000;2023-08-17T09:06:01;9.60;;;4.00;;
48897;SDS011;34713;50.038;20.000;2023-08-17T09:08:30;8.00;;;3.90;;
48897;SDS011;34713;50.038;20.000;2023-08-17T09:11:00;8.70;;;4.40;;
48897;SDS011;34713;50.038;20.000;2023-08-17T09:16:34;8.00;;;4.40;;
48897;SDS011;34713;50.038;20.000;2023-08-17T09:19:11;12.40;;;5.10;;
48897;SDS011;34713;50.038;20.000;2023-08-17T09:22:03;8.50;;;4.70;;
48897;SDS011;34713;50.038;20.000;2023-08-17T09:24:36;12.80;;;5.10;;
48897;SDS011;34713;50.038;20.000;2023-08-17T09:27:06;12.30;;;5.90;;
48897;SDS011;34713;50.038;20.000;2023-08-17T09:29:40;9.90;;;5.50;;
48897;SDS011;34713;50.038;20.000;2023-08-17T09:35:13;18.00;;;6.80;;
48897;SDS011;34713;50.038;20.000;2023-08-17T09:37:43;15.30;;;6.90;;
48897;SDS011;34713;50.038;20.000;2023-08-17T09:40:10;13.90;;;6.80;;
48897;SDS011;34713;50.038;20.000;2023-08-17T09:42:54;14.70;;;6.00;;
48897;SDS011;34713;50.038;20.000;2023-08-17T09:45:27;14.90;;;6.40;;
48897;SDS011;34713;50.038;20.000;2023-08-17T09:47:58;14.50;;;6.50;;
48897;SDS011;34713;50.038;20.000;2023-08-17T09:50:45;14.30;;;6.10;;
48897;SDS011;34713;50.038;20.000;2023-08-17T09:53:17;13.30;;;5.60;;
48897;SDS011;34713;50.038;20.000;2023-08-17T09:55:45;13.90;;;5.20;;
48897;SDS011;34713;50.038;20.000;2023-08-17T09:58:13;16.80;;;5.70;;
48897;SDS011;34713;50.038;20.000;2023-08-17T10:00:52;12.80;;;5.30;;
48897;SDS011;34713;50.038;20.000;2023-08-17T10:03:20;10.40;;;4.90;;
48897;SDS011;34713;50.038;20.000;2023-08-17T10:05:59;10.90;;;4.90;;
48897;SDS011;34713;50.038;20.000;2023-08-17T10:11:30;10.40;;;3.70;;
48897;SDS011;34713;50.038;20.000;2023-08-17T10:14:06;6.80;;;3.20;;
48897;SDS011;34713;50.038;20.000;2023-08-17T10:16:40;5.80;;;3.50;;
48897;SDS011;34713;50.038;20.000;2023-08-17T10:19:22;5.70;;;4.00;;
48897;SDS011;34713;50.038;20.000;2023-08-17T10:22:09;5.10;;;3.50;;
48897;SDS011;34713;50.038;20.000;2023-08-17T10:24:39;9.90;;;3.70;;
48897;SDS011;34713;50.038;20.000;2023-08-17T10:27:07;5.30;;;3.60;;
48897;SDS011;34713;50.038;20.000;2023-08-17T10:29:37;7.70;;;3.40;;
48897;SDS011;34713;50.038;20.000;2023-08-17T10:32:27;8.30;;;3.10;;
48897;SDS011;34713;50.038;20.000;2023-08-17T10:34:55;6.90;;;2.90;;
48897;SDS011;34713;50.038;20.000;2023-08-17T10:37:22;6.80;;;2.80;;
48897;SDS011;34713;50.038;20.000;2023-08-17T10:39:51;6.70;;;2.50;;
48897;SDS011;34713;50.038;20.000;2023-08-17T10:42:32;7.30;;;2.60;;
48897;SDS011;34713;50.038;20.000;2023-08-17T10:45:45;5.80;;;3.10;;
48897;SDS011;34713;50.038;20.000;2023-08-17T10:50:38;6.10;;;2.90;;
48897;SDS011;34713;50.038;20.000;2023-08-17T10:53:10;10.90;;;4.00;;
48897;SDS011;34713;50.038;20.000;2023-08-17T10:55:41;9.20;;;3.60;;
48897;SDS011;34713;50.038;20.000;2023-08-17T10:58:11;8.70;;;3.50;;
48897;SDS011;34713;50.038;20.000;2023-08-17T11:00:38;6.10;;;3.70;;
48897;SDS011;34713;50.038;20.000;2023-08-17T11:03:06;5.30;;;3.70;;
48897;SDS011;34713;50.038;20.000;2023-08-17T11:05:44;8.20;;;4.10;;
48897;SDS011;34713;50.038;20.000;2023-08-17T11:08:23;7.20;;;3.20;;
48897;SDS011;34713;50.038;20.000;2023-08-17T11:11:03;5.80;;;3.30;;
48897;SDS011;34713;50.038;20.000;2023-08-17T11:13:34;6.40;;;3.50;;
48897;SDS011;34713;50.038;20.000;2023-08-17T11:16:03;8.10;;;3.60;;
48897;SDS011;34713;50.038;20.000;2023-08-17T11:18:33;7.70;;;3.10;;
48897;SDS011;34713;50.038;20.000;2023-08-17T11:21:01;6.40;;;3.10;;
48897;SDS011;34713;50.038;20.000;2023-08-17T11:23:30;9.20;;;3.20;;
48897;SDS011;34713;50.038;20.000;2023-08-17T11:25:57;7.40;;;3.40;;
48897;SDS011;34713;50.038;20.000;2023-08-17T11:28:24;7.80;;;3.30;;
48897;SDS011;34713;50.038;20.000;2023-08-17T11:30:57;5.30;;;2.90;;
48897;SDS011;34713;50.038;20.000;2023-08-17T11:33:30;4.90;;;2.90;;
48897;SDS011;34713;50.038;20.000;2023-08-17T11:35:58;6.60;;;3.30;;
48897;SDS011;34713;50.038;20.000;2023-08-17T11:38:35;6.40;;;3.20;;
48897;SDS011;34713;50.038;20.000;2023-08-17T11:41:07;10.60;;;4.20;;
48897;SDS011;34713;50.038;20.000;2023-08-17T11:43:37;16.30;;;4.40;;
48897;SDS011;34713;50.038;20.000;2023-08-17T11:46:13;6.00;;;3.00;;
48897;SDS011;34713;50.038;20.000;2023-08-17T11:48:40;4.90;;;2.90;;
48897;SDS011;34713;50.038;20.000;2023-08-17T11:51:06;7.40;;;3.40;;
48897;SDS011;34713;50.038;20.000;2023-08-17T11:53:34;12.70;;;3.80;;
48897;SDS011;34713;50.038;20.000;2023-08-17T11:56:05;9.80;;;3.60;;
48897;SDS011;34713;50.038;20.000;2023-08-17T12:04:40;5.10;;;2.80;;
48897;SDS011;34713;50.038;20.000;2023-08-17T12:07:35;6.70;;;2.60;;
48897;SDS011;34713;50.038;20.000;2023-08-17T12:10:05;11.30;;;2.40;;
48897;SDS011;34713;50.038;20.000;2023-08-17T12:12:37;4.30;;;2.20;;
48897;SDS011;34713;50.038;20.000;2023-08-17T12:15:23;9.60;;;2.50;;
48897;SDS011;34713;50.038;20.000;2023-08-17T12:17:54;4.20;;;2.10;;
48897;SDS011;34713;50.038;20.000;2023-08-17T12:20:37;11.10;;;2.60;;
48897;SDS011;34713;50.038;20.000;2023-08-17T12:23:09;22.20;;;4.20;;
48897;SDS011;34713;50.038;20.000;2023-08-17T12:25:36;11.90;;;2.80;;
48897;SDS011;34713;50.038;20.000;2023-08-17T12:28:05;8.00;;;2.20;;
48897;SDS011;34713;50.038;20.000;2023-08-17T12:30:37;14.70;;;2.90;;
48897;SDS011;34713;50.038;20.000;2023-08-17T12:33:04;10.80;;;2.10;;
48897;SDS011;34713;50.038;20.000;2023-08-17T12:38:39;6.90;;;1.70;;
48897;SDS011;34713;50.038;20.000;2023-08-17T12:41:11;6.70;;;1.90;;
48897;SDS011;34713;50.038;20.000;2023-08-17T12:43:37;5.10;;;1.60;;
48897;SDS011;34713;50.038;20.000;2023-08-17T12:46:04;3.90;;;1.80;;
48897;SDS011;34713;50.038;20.000;2023-08-17T12:48:33;7.60;;;2.10;;
48897;SDS011;34713;50.038;20.000;2023-08-17T12:51:00;2.70;;;1.50;;
48897;SDS011;34713;50.038;20.000;2023-08-17T12:53:50;3.90;;;1.70;;
48897;SDS011;34713;50.038;20.000;2023-08-17T12:56:37;3.70;;;1.50;;
48897;SDS011;34713;50.038;20.000;2023-08-17T12:59:04;6.60;;;1.30;;
48897;SDS011;34713;50.038;20.000;2023-08-17T13:01:42;1.80;;;1.10;;
48897;SDS011;34713;50.038;20.000;2023-08-17T13:04:09;5.30;;;1.30;;
48897;SDS011;34713;50.038;20.000;2023-08-17T13:06:47;3.50;;;1.70;;
48897;SDS011;34713;50.038;20.000;2023-08-17T13:09:17;5.40;;;2.60;;
48897;SDS011;34713;50.038;20.000;2023-08-17T13:15:29;4.40;;;1.70;;
48897;SDS011;34713;50.038;20.000;2023-08-17T13:18:36;3.20;;;1.60;;
48897;SDS011;34713;50.038;20.000;2023-08-17T13:24:36;4.00;;;1.70;;
48897;SDS011;34713;50.038;20.000;2023-08-17T13:27:06;2.80;;;1.80;;
48897;SDS011;34713;50.038;20.000;2023-08-17T13:29:35;5.10;;;1.70;;
48897;SDS011;34713;50.038;20.000;2023-08-17T13:32:07;5.20;;;1.90;;
48897;SDS011;34713;50.038;20.000;2023-08-17T13:34:34;3.00;;;1.70;;
48897;SDS011;34713;50.038;20.000;2023-08-17T13:40:01;4.30;;;1.50;;
48897;SDS011;34713;50.038;20.000;2023-08-17T13:42:28;3.90;;;1.60;;
48897;SDS011;34713;50.038;20.000;2023-08-17T13:44:57;3.50;;;1.70;;
48897;SDS011;34713;50.038;20.000;2023-08-17T13:47:24;6.40;;;1.90;;
48897;SDS011;34713;50.038;20.000;2023-08-17T13:49:51;8.90;;;3.10;;
48897;SDS011;34713;50.038;20.000;2023-08-17T13:52:32;8.70;;;1.70;;
48897;SDS011;34713;50.038;20.000;2023-08-17T13:55:22;3.00;;;1.50;;
48897;SDS011;34713;50.038;20.000;2023-08-17T13:57:58;4.90;;;1.70;;
48897;SDS011;34713;50.038;20.000;2023-08-17T14:00:41;4.20;;;1.70;;
48897;SDS011;34713;50.038;20.000;2023-08-17T14:03:17;5.40;;;1.80;;
48897;SDS011;34713;50.038;20.000;2023-08-17T14:16:36;4.60;;;1.60;;
48897;SDS011;34713;50.038;20.000;2023-08-17T14:23:01;2.30;;;1.20;;
48897;SDS011;34713;50.038;20.000;2023-08-17T14:25:50;4.00;;;1.80;;
48897;SDS011;34713;50.038;20.000;2023-08-17T14:28:40;2.70;;;1.40;;
48897;SDS011;34713;50.038;20.000;2023-08-17T14:37:47;2.40;;;1.50;;
48897;SDS011;34713;50.038;20.000;2023-08-17T14:44:00;5.20;;;1.70;;
48897;SDS011;34713;50.038;20.000;2023-08-17T14:50:29;4.20;;;1.80;;
48897;SDS011;34713;50.038;20.000;2023-08-17T14:59:57;2.70;;;1.40;;
48897;SDS011;34713;50.038;20.000;2023-08-17T15:02:33;5.00;;;1.80;;
48897;SDS011;34713;50.038;20.000;2023-08-17T15:05:00;1.90;;;1.40;;
48897;SDS011;34713;50.038;20.000;2023-08-17T15:08:07;4.30;;;1.50;;
48897;SDS011;34713;50.038;20.000;2023-08-17T15:10:57;6.20;;;1.70;;
48897;SDS011;34713;50.038;20.000;2023-08-17T15:16:17;3.50;;;1.60;;
48897;SDS011;34713;50.038;20.000;2023-08-17T15:19:17;4.20;;;2.90;;
48897;SDS011;34713;50.038;20.000;2023-08-17T15:25:30;3.20;;;1.50;;
48897;SDS011;34713;50.038;20.000;2023-08-17T15:28:39;1.80;;;1.40;;
48897;SDS011;34713;50.038;20.000;2023-08-17T15:31:40;4.10;;;1.40;;
48897;SDS011;34713;50.038;20.000;2023-08-17T15:34:07;3.00;;;1.50;;
48897;SDS011;34713;50.038;20.000;2023-08-17T15:36:34;7.70;;;1.60;;
48897;SDS011;34713;50.038;20.000;2023-08-17T15:39:00;3.50;;;1.40;;
48897;SDS011;34713;50.038;20.000;2023-08-17T15:41:30;1.80;;;1.40;;
48897;SDS011;34713;50.038;20.000;2023-08-17T15:43:57;2.50;;;1.70;;
48897;SDS011;34713;50.038;20.000;2023-08-17T15:59:46;3.60;;;2.00;;
48897;SDS011;34713;50.038;20.000;2023-08-17T16:02:53;3.60;;;1.70;;
48897;SDS011;34713;50.038;20.000;2023-08-17T16:05:46;2.60;;;2.10;;
48897;SDS011;34713;50.038;20.000;2023-08-17T16:08:56;3.60;;;1.80;;
48897;SDS011;34713;50.038;20.000;2023-08-17T16:11:22;3.30;;;1.80;;
48897;SDS011;34713;50.038;20.000;2023-08-17T16:14:09;2.10;;;1.90;;
48897;SDS011;34713;50.038;20.000;2023-08-17T16:16:56;5.90;;;2.50;;
48897;SDS011;34713;50.038;20.000;2023-08-17T16:23:00;4.80;;;2.00;;
48897;SDS011;34713;50.038;20.000;2023-08-17T16:25:48;4.30;;;2.10;;
48897;SDS011;34713;50.038;20.000;2023-08-17T16:28:36;2.50;;;1.80;;
48897;SDS011;34713;50.038;20.000;2023-08-17T16:31:09;2.00;;;1.50;;
48897;SDS011;34713;50.038;20.000;2023-08-17T16:43:14;3.00;;;2.00;;
48897;SDS011;34713;50.038;20.000;2023-08-17T16:45:41;5.00;;;1.80;;
48897;SDS011;34713;50.038;20.000;2023-08-17T16:48:10;2.60;;;1.70;;